sensor_id;sensor_type;location;lat;lon;timestamp;pressure;altitude;pressure_sealevel;temperature;humidity
65553;BME280;52465;51.560;14.368;2023-05-19T00:01:28;101276.66;;;16.21;54.25
65553;BME280;52465;51.560;14.368;2023-05-19T00:03:56;101270.03;;;16.25;54.24
65553;BME280;52465;51.560;14.368;2023-05-19T00:06:27;101281.25;;;16.27;54.29
65553;BME280;52465;51.560;14.368;2023-05-19T00:09:04;101277.66;;;16.28;54.38
65553;BME280;52465;51.560;14.368;2023-05-19T00:11:39;101281.59;;;16.24;54.53
65553;BME280;52465;51.560;14.368;2023-05-19T00:14:07;101279.13;;;16.22;54.26
65553;BME280;52465;51.560;14.368;2023-05-19T00:16:33;101276.16;;;16.25;54.35
65553;BME280;52465;51.560;14.368;2023-05-19T00:19:00;101276.31;;;16.24;54.40
65553;BME280;52465;51.560;14.368;2023-05-19T00:21:26;101262.44;;;16.22;54.39
65553;BME280;52465;51.560;14.368;2023-05-19T00:23:52;101266.56;;;16.16;54.37
65553;BME280;52465;51.560;14.368;2023-05-19T00:26:18;101261.63;;;16.21;54.51
65553;BME280;52465;51.560;14.368;2023-05-19T00:28:43;101259.16;;;16.20;54.49
65553;BME280;52465;51.560;14.368;2023-05-19T00:31:09;101260.16;;;16.19;54.35
65553;BME280;52465;51.560;14.368;2023-05-19T00:33:34;101271.22;;;16.22;54.32
65553;BME280;52465;51.560;14.368;2023-05-19T00:36:00;101260.81;;;16.12;54.54
65553;BME280;52465;51.560;14.368;2023-05-19T00:38:44;101236.56;;;16.01;54.43
65553;BME280;52465;51.560;14.368;2023-05-19T00:41:11;101255.03;;;16.09;54.50
65553;BME280;52465;51.560;14.368;2023-05-19T00:43:37;101259.19;;;16.11;54.57
65553;BME280;52465;51.560;14.368;2023-05-19T00:46:03;101261.00;;;16.11;54.54
65553;BME280;52465;51.560;14.368;2023-05-19T00:48:28;101253.56;;;16.06;54.62
65553;BME280;52465;51.560;14.368;2023-05-19T00:50:55;101273.53;;;16.17;54.62
65553;BME280;52465;51.560;14.368;2023-05-19T00:53:26;101266.09;;;16.12;54.41
65553;BME280;52465;51.560;14.368;2023-05-19T00:55:54;101269.41;;;16.14;54.49
65553;BME280;52465;51.560;14.368;2023-05-19T00:58:20;101247.16;;;16.01;54.38
65553;BME280;52465;51.560;14.368;2023-05-19T01:00:48;101268.56;;;16.14;54.63
65553;BME280;52465;51.560;14.368;2023-05-19T01:03:14;101277.31;;;16.14;54.64
65553;BME280;52465;51.560;14.368;2023-05-19T01:05:44;101271.22;;;16.14;54.50
65553;BME280;52465;51.560;14.368;2023-05-19T01:08:10;101249.28;;;15.97;54.60
65553;BME280;52465;51.560;14.368;2023-05-19T01:10:35;101266.09;;;16.12;54.39
65553;BME280;52465;51.560;14.368;2023-05-19T01:13:02;101256.53;;;16.03;54.65
65553;BME280;52465;51.560;14.368;2023-05-19T01:15:29;101251.94;;;15.97;54.59
65553;BME280;52465;51.560;14.368;2023-05-19T01:18:00;101270.72;;;16.10;54.37
65553;BME280;52465;51.560;14.368;2023-05-19T01:20:47;101270.06;;;16.08;54.56
65553;BME280;52465;51.560;14.368;2023-05-19T01:23:30;101263.97;;;16.08;54.62
65553;BME280;52465;51.560;14.368;2023-05-19T01:26:10;101264.13;;;16.06;54.71
65553;BME280;52465;51.560;14.368;2023-05-19T01:31:22;101253.25;;;16.01;54.63
65553;BME280;52465;51.560;14.368;2023-05-19T01:33:51;101245.81;;;15.97;54.61
65553;BME280;52465;51.560;14.368;2023-05-19T01:36:19;101263.47;;;16.04;54.70
65553;BME280;52465;51.560;14.368;2023-05-19T01:38:49;101247.00;;;15.94;54.55
65553;BME280;52465;51.560;14.368;2023-05-19T01:41:19;101247.81;;;15.95;54.78
65553;BME280;52465;51.560;14.368;2023-05-19T01:43:48;101265.28;;;16.04;54.70
65553;BME280;52465;51.560;14.368;2023-05-19T01:46:16;101261.81;;;16.03;54.62
65553;BME280;52465;51.560;14.368;2023-05-19T01:48:43;101262.31;;;15.99;54.69
65553;BME280;52465;51.560;14.368;2023-05-19T01:51:09;101266.47;;;16.01;54.64
65553;BME280;52465;51.560;14.368;2023-05-19T01:53:35;101268.28;;;16.01;54.62
65553;BME280;52465;51.560;14.368;2023-05-19T01:56:04;101265.94;;;15.98;54.84
65553;BME280;52465;51.560;14.368;2023-05-19T01:58:46;101265.13;;;15.97;54.84
65553;BME280;52465;51.560;14.368;2023-05-19T02:01:30;101260.66;;;15.98;54.77
65553;BME280;52465;51.560;14.368;2023-05-19T02:04:23;101261.50;;;15.98;54.77
65553;BME280;52465;51.560;14.368;2023-05-19T02:07:12;101262.50;;;15.97;54.90
65553;BME280;52465;51.560;14.368;2023-05-19T02:09:57;101262.50;;;15.97;54.85
65553;BME280;52465;51.560;14.368;2023-05-19T02:12:33;101251.59;;;15.92;54.71
65553;BME280;52465;51.560;14.368;2023-05-19T02:15:12;101259.19;;;15.95;54.83
65553;BME280;52465;51.560;14.368;2023-05-19T02:17:42;101250.97;;;15.90;54.90
65553;BME280;52465;51.560;14.368;2023-05-19T02:20:14;101259.88;;;15.89;54.75
65553;BME280;52465;51.560;14.368;2023-05-19T02:22:40;101267.28;;;15.94;54.96
65553;BME280;52465;51.560;14.368;2023-05-19T02:25:07;101242.88;;;15.83;54.87
65553;BME280;52465;51.560;14.368;2023-05-19T02:27:35;101246.47;;;15.82;54.90
65553;BME280;52465;51.560;14.368;2023-05-19T02:30:01;101260.34;;;15.93;54.90
65553;BME280;52465;51.560;14.368;2023-05-19T02:32:31;101244.69;;;15.83;54.99
65553;BME280;52465;51.560;14.368;2023-05-19T02:34:56;101262.34;;;15.91;54.96
65553;BME280;52465;51.560;14.368;2023-05-19T02:37:22;101259.88;;;15.89;54.97
65553;BME280;52465;51.560;14.368;2023-05-19T02:39:49;101256.41;;;15.89;54.97
65553;BME280;52465;51.560;14.368;2023-05-19T02:42:15;101245.53;;;15.83;54.83
65553;BME280;52465;51.560;14.368;2023-05-19T02:44:45;101248.50;;;15.89;55.15
65553;BME280;52465;51.560;14.368;2023-05-19T02:47:11;101232.81;;;15.79;54.90
65553;BME280;52465;51.560;14.368;2023-05-19T02:49:36;101234.47;;;15.80;54.95
65553;BME280;52465;51.560;14.368;2023-05-19T02:52:03;101233.47;;;15.81;54.94
65553;BME280;52465;51.560;14.368;2023-05-19T02:54:30;101243.53;;;15.85;54.93
65553;BME280;52465;51.560;14.368;2023-05-19T02:56:56;101251.28;;;15.87;55.06
65553;BME280;52465;51.560;14.368;2023-05-19T02:59:21;101249.63;;;15.86;55.22
65553;BME280;52465;51.560;14.368;2023-05-19T03:01:47;101255.09;;;15.84;54.95
65553;BME280;52465;51.560;14.368;2023-05-19T03:04:13;101243.69;;;15.84;55.22
65553;BME280;52465;51.560;14.368;2023-05-19T03:06:38;101243.03;;;15.82;55.32
65553;BME280;52465;51.560;14.368;2023-05-19T03:09:04;101236.09;;;15.81;55.19
65553;BME280;52465;51.560;14.368;2023-05-19T03:11:30;101238.75;;;15.73;55.23
65553;BME280;52465;51.560;14.368;2023-05-19T03:13:55;101244.38;;;15.78;55.19
65553;BME280;52465;51.560;14.368;2023-05-19T03:16:21;101249.31;;;15.81;55.10
65553;BME280;52465;51.560;14.368;2023-05-19T03:18:47;101248.84;;;15.77;55.21
65553;BME280;52465;51.560;14.368;2023-05-19T03:21:12;101247.31;;;15.75;55.22
65553;BME280;52465;51.560;14.368;2023-05-19T03:23:38;101256.56;;;15.79;55.21
65553;BME280;52465;51.560;14.368;2023-05-19T03:26:03;101256.06;;;15.75;55.17
65553;BME280;52465;51.560;14.368;2023-05-19T03:28:29;101257.41;;;15.79;55.20
65553;BME280;52465;51.560;14.368;2023-05-19T03:31:15;101265.63;;;15.76;55.17
65553;BME280;52465;51.560;14.368;2023-05-19T03:33:41;101262.84;;;15.78;55.25
65553;BME280;52465;51.560;14.368;2023-05-19T03:36:07;101262.03;;;15.77;55.14
65553;BME280;52465;51.560;14.368;2023-05-19T03:38:32;101245.03;;;15.64;55.31
65553;BME280;52465;51.560;14.368;2023-05-19T03:40:58;101254.25;;;15.76;55.14
65553;BME280;52465;51.560;14.368;2023-05-19T03:43:26;101256.25;;;15.74;55.27
65553;BME280;52465;51.560;14.368;2023-05-19T03:45:55;101246.34;;;15.68;55.30
65553;BME280;52465;51.560;14.368;2023-05-19T03:48:20;101265.97;;;15.73;55.32
65553;BME280;52465;51.560;14.368;2023-05-19T03:50:46;101198.66;;;15.28;55.24
65553;BME280;52465;51.560;14.368;2023-05-19T03:53:13;101239.25;;;15.60;55.14
65553;BME280;52465;51.560;14.368;2023-05-19T03:55:41;101253.09;;;15.62;55.36
65553;BME280;52465;51.560;14.368;2023-05-19T03:58:09;101266.81;;;15.66;55.53
65553;BME280;52465;51.560;14.368;2023-05-19T04:00:34;101275.72;;;15.73;55.33
65553;BME280;52465;51.560;14.368;2023-05-19T04:03:00;101243.38;;;15.63;55.16
65553;BME280;52465;51.560;14.368;2023-05-19T04:05:44;101261.53;;;15.66;55.49
65553;BME280;52465;51.560;14.368;2023-05-19T04:08:09;101255.59;;;15.64;55.32
65553;BME280;52465;51.560;14.368;2023-05-19T04:10:53;101267.28;;;15.69;55.26
65553;BME280;52465;51.560;14.368;2023-05-19T04:13:23;101268.13;;;15.70;55.28
65553;BME280;52465;51.560;14.368;2023-05-19T04:15:48;101270.75;;;15.70;55.35
65553;BME280;52465;51.560;14.368;2023-05-19T04:18:14;101273.41;;;15.70;55.45
65553;BME280;52465;51.560;14.368;2023-05-19T04:20:39;101244.66;;;15.58;55.51
65553;BME280;52465;51.560;14.368;2023-05-19T04:23:05;101267.47;;;15.68;55.36
65553;BME280;52465;51.560;14.368;2023-05-19T04:25:31;101267.63;;;15.66;55.45
65553;BME280;52465;51.560;14.368;2023-05-19T04:27:57;101271.09;;;15.67;55.49
65553;BME280;52465;51.560;14.368;2023-05-19T04:30:24;101265.81;;;15.67;55.44
65553;BME280;52465;51.560;14.368;2023-05-19T04:32:50;101255.56;;;15.55;55.63
65553;BME280;52465;51.560;14.368;2023-05-19T04:35:18;101262.50;;;15.65;55.37
65553;BME280;52465;51.560;14.368;2023-05-19T04:37:44;101252.56;;;15.58;55.53
65553;BME280;52465;51.560;14.368;2023-05-19T04:40:12;101241.84;;;15.52;55.37
65553;BME280;52465;51.560;14.368;2023-05-19T04:42:38;101251.94;;;15.56;55.46
65553;BME280;52465;51.560;14.368;2023-05-19T04:45:08;101253.91;;;15.54;55.53
65553;BME280;52465;51.560;14.368;2023-05-19T04:47:34;101262.31;;;15.58;55.55
65553;BME280;52465;51.560;14.368;2023-05-19T04:50:05;101263.97;;;15.59;55.59
65553;BME280;52465;51.560;14.368;2023-05-19T04:52:32;101271.41;;;15.64;55.41
65553;BME280;52465;51.560;14.368;2023-05-19T04:54:58;101266.28;;;15.62;55.44
65553;BME280;52465;51.560;14.368;2023-05-19T04:57:23;101282.81;;;15.64;55.40
65553;BME280;52465;51.560;14.368;2023-05-19T04:59:50;101270.75;;;15.61;55.35
65553;BME280;52465;51.560;14.368;2023-05-19T05:02:16;101251.28;;;15.54;55.45
65553;BME280;52465;51.560;14.368;2023-05-19T05:04:41;101257.53;;;15.53;55.19
65553;BME280;52465;51.560;14.368;2023-05-19T05:07:09;101275.06;;;15.63;55.57
65553;BME280;52465;51.560;14.368;2023-05-19T05:09:37;101275.06;;;15.63;55.54
65553;BME280;52465;51.560;14.368;2023-05-19T05:12:03;101269.09;;;15.60;55.46
65553;BME280;52465;51.560;14.368;2023-05-19T05:14:28;101263.66;;;15.62;55.57
65553;BME280;52465;51.560;14.368;2023-05-19T05:16:54;101261.16;;;15.52;55.51
65553;BME280;52465;51.560;14.368;2023-05-19T05:19:20;101279.66;;;15.60;55.51
65553;BME280;52465;51.560;14.368;2023-05-19T05:21:46;101280.47;;;15.61;55.59
65553;BME280;52465;51.560;14.368;2023-05-19T05:24:12;101284.09;;;15.60;55.52
65553;BME280;52465;51.560;14.368;2023-05-19T05:26:38;101275.34;;;15.59;55.63
65553;BME280;52465;51.560;14.368;2023-05-19T05:29:03;101265.78;;;15.50;55.43
65553;BME280;52465;51.560;14.368;2023-05-19T05:31:29;101276.19;;;15.60;55.50
65553;BME280;52465;51.560;14.368;2023-05-19T05:33:55;101279.66;;;15.60;55.57
65553;BME280;52465;51.560;14.368;2023-05-19T05:36:21;101278.81;;;15.60;55.63
65553;BME280;52465;51.560;14.368;2023-05-19T05:38:46;101275.19;;;15.61;55.67
65553;BME280;52465;51.560;14.368;2023-05-19T05:41:11;101266.59;;;15.59;55.79
65553;BME280;52465;51.560;14.368;2023-05-19T05:43:37;101255.06;;;15.44;55.64
65553;BME280;52465;51.560;14.368;2023-05-19T05:46:02;101259.81;;;15.48;55.47
65553;BME280;52465;51.560;14.368;2023-05-19T05:48:29;101253.72;;;15.48;55.66
65553;BME280;52465;51.560;14.368;2023-05-19T05:50:55;101265.78;;;15.58;55.76
65553;BME280;52465;51.560;14.368;2023-05-19T05:53:24;101277.97;;;15.59;55.61
65553;BME280;52465;51.560;14.368;2023-05-19T05:55:49;101279.78;;;15.59;55.66
65553;BME280;52465;51.560;14.368;2023-05-19T05:58:15;101266.59;;;15.51;55.84
65553;BME280;52465;51.560;14.368;2023-05-19T06:00:45;101270.41;;;15.56;55.77
65553;BME280;52465;51.560;14.368;2023-05-19T06:03:12;101274.03;;;15.55;55.76
65553;BME280;52465;51.560;14.368;2023-05-19T06:05:38;101276.34;;;15.58;55.66
65553;BME280;52465;51.560;14.368;2023-05-19T06:08:04;101262.97;;;15.52;55.81
65553;BME280;52465;51.560;14.368;2023-05-19T06:10:30;101270.91;;;15.60;55.68
65553;BME280;52465;51.560;14.368;2023-05-19T06:12:56;101260.50;;;15.50;55.70
65553;BME280;52465;51.560;14.368;2023-05-19T06:15:21;101265.44;;;15.53;55.73
65553;BME280;52465;51.560;14.368;2023-05-19T06:17:48;101256.88;;;15.51;55.79
65553;BME280;52465;51.560;14.368;2023-05-19T06:20:13;101268.75;;;15.55;55.72
65553;BME280;52465;51.560;14.368;2023-05-19T06:22:39;101269.91;;;15.61;55.80
65553;BME280;52465;51.560;14.368;2023-05-19T06:25:07;101272.69;;;15.59;55.76
65553;BME280;52465;51.560;14.368;2023-05-19T06:27:36;101270.41;;;15.56;55.64
65553;BME280;52465;51.560;14.368;2023-05-19T06:30:02;101273.38;;;15.61;55.58
65553;BME280;52465;51.560;14.368;2023-05-19T06:32:30;101276.03;;;15.61;55.67
65553;BME280;52465;51.560;14.368;2023-05-19T06:34:56;101276.69;;;15.64;55.73
65553;BME280;52465;51.560;14.368;2023-05-19T06:37:21;101273.38;;;15.61;55.51
65553;BME280;52465;51.560;14.368;2023-05-19T06:39:51;101278.16;;;15.58;55.62
65553;BME280;52465;51.560;14.368;2023-05-19T06:42:20;101280.34;;;15.63;55.56
65553;BME280;52465;51.560;14.368;2023-05-19T06:44:49;101251.59;;;15.51;55.50
65553;BME280;52465;51.560;14.368;2023-05-19T06:47:15;101280.34;;;15.63;55.21
65553;BME280;52465;51.560;14.368;2023-05-19T06:49:40;101286.44;;;15.63;55.52
65553;BME280;52465;51.560;14.368;2023-05-19T06:52:08;101279.97;;;15.57;55.45
65553;BME280;52465;51.560;14.368;2023-05-19T06:54:35;101289.22;;;15.61;55.40
65553;BME280;52465;51.560;14.368;2023-05-19T06:57:01;101277.00;;;15.52;55.57
65553;BME280;52465;51.560;14.368;2023-05-19T06:59:26;101263.47;;;15.47;55.52
65553;BME280;52465;51.560;14.368;2023-05-19T07:01:52;101274.34;;;15.52;55.48
65553;BME280;52465;51.560;14.368;2023-05-19T07:04:20;101305.56;;;15.65;55.37
65553;BME280;52465;51.560;14.368;2023-05-19T07:06:45;101292.03;;;15.60;55.46
65553;BME280;52465;51.560;14.368;2023-05-19T07:09:11;101302.78;;;15.67;55.53
65553;BME280;52465;51.560;14.368;2023-05-19T07:11:36;101304.59;;;15.66;55.38
65553;BME280;52465;51.560;14.368;2023-05-19T07:14:02;101287.06;;;15.57;55.45
65553;BME280;52465;51.560;14.368;2023-05-19T07:16:28;101285.06;;;15.59;55.42
65553;BME280;52465;51.560;14.368;2023-05-19T07:18:53;101295.50;;;15.69;55.24
65553;BME280;52465;51.560;14.368;2023-05-19T07:21:19;101290.22;;;15.69;55.33
65553;BME280;52465;51.560;14.368;2023-05-19T07:23:49;101280.34;;;15.63;55.28
65553;BME280;52465;51.560;14.368;2023-05-19T07:26:14;101276.84;;;15.70;55.18
65553;BME280;52465;51.560;14.368;2023-05-19T07:28:40;101265.31;;;15.63;54.97
65553;BME280;52465;51.560;14.368;2023-05-19T07:31:06;101287.94;;;15.74;54.93
65553;BME280;52465;51.560;14.368;2023-05-19T07:33:32;101278.03;;;15.68;55.05
65553;BME280;52465;51.560;14.368;2023-05-19T07:35:57;101283.66;;;15.73;55.07
65553;BME280;52465;51.560;14.368;2023-05-19T07:38:23;101281.31;;;15.70;55.03
65553;BME280;52465;51.560;14.368;2023-05-19T07:40:48;101270.28;;;15.66;55.04
65553;BME280;52465;51.560;14.368;2023-05-19T07:43:14;101257.03;;;15.58;55.04
65553;BME280;52465;51.560;14.368;2023-05-19T07:45:39;101278.84;;;15.76;54.94
65553;BME280;52465;51.560;14.368;2023-05-19T07:48:05;101263.31;;;15.65;54.96
65553;BME280;52465;51.560;14.368;2023-05-19T07:50:34;101271.09;;;15.75;55.16
65553;BME280;52465;51.560;14.368;2023-05-19T07:53:00;101277.69;;;15.79;54.95
65553;BME280;52465;51.560;14.368;2023-05-19T07:55:25;101277.69;;;15.79;55.04
65553;BME280;52465;51.560;14.368;2023-05-19T07:57:51;101271.25;;;15.73;54.95
65553;BME280;52465;51.560;14.368;2023-05-19T08:00:18;101277.69;;;15.79;54.75
65553;BME280;52465;51.560;14.368;2023-05-19T08:02:44;101259.88;;;15.73;54.77
65553;BME280;52465;51.560;14.368;2023-05-19T08:05:09;101286.28;;;15.81;54.94
65553;BME280;52465;51.560;14.368;2023-05-19T08:07:35;101257.25;;;15.73;54.77
65553;BME280;52465;51.560;14.368;2023-05-19T08:10:01;101267.78;;;15.81;54.86
65553;BME280;52465;51.560;14.368;2023-05-19T08:12:27;101264.50;;;15.79;54.89
65553;BME280;52465;51.560;14.368;2023-05-19T08:14:55;101271.09;;;15.83;54.89
65553;BME280;52465;51.560;14.368;2023-05-19T08:17:21;101260.53;;;15.83;54.78
65553;BME280;52465;51.560;14.368;2023-05-19T08:19:47;101253.59;;;15.82;54.90
65553;BME280;52465;51.560;14.368;2023-05-19T08:22:12;101249.47;;;15.79;54.73
65553;BME280;52465;51.560;14.368;2023-05-19T08:24:38;101250.47;;;15.78;54.71
65553;BME280;52465;51.560;14.368;2023-05-19T08:27:13;101252.28;;;15.78;55.31
65553;BME280;52465;51.560;14.368;2023-05-19T08:29:38;101260.53;;;15.83;54.72
65553;BME280;52465;51.560;14.368;2023-05-19T08:32:05;101235.63;;;15.69;54.81
65553;BME280;52465;51.560;14.368;2023-05-19T08:34:30;101247.16;;;15.76;54.47
65553;BME280;52465;51.560;14.368;2023-05-19T08:36:57;101256.09;;;15.83;54.86
65553;BME280;52465;51.560;14.368;2023-05-19T08:39:24;101241.38;;;15.81;54.75
65553;BME280;52465;51.560;14.368;2023-05-19T08:41:52;101250.81;;;15.83;54.56
65553;BME280;52465;51.560;14.368;2023-05-19T08:44:21;101240.88;;;15.85;54.55
65553;BME280;52465;51.560;14.368;2023-05-19T08:46:46;101244.03;;;15.89;54.65
65553;BME280;52465;51.560;14.368;2023-05-19T08:49:13;101232.78;;;15.87;54.68
65553;BME280;52465;51.560;14.368;2023-05-19T08:51:49;101235.09;;;15.90;54.34
65553;BME280;52465;51.560;14.368;2023-05-19T08:54:19;101234.59;;;15.86;54.54
65553;BME280;52465;51.560;14.368;2023-05-19T08:56:46;101209.53;;;15.74;54.66
65553;BME280;52465;51.560;14.368;2023-05-19T08:59:12;101235.94;;;15.91;54.72
65553;BME280;52465;51.560;14.368;2023-05-19T09:01:44;101241.22;;;15.91;54.63
65553;BME280;52465;51.560;14.368;2023-05-19T09:04:11;101235.44;;;15.87;54.45
65553;BME280;52465;51.560;14.368;2023-05-19T09:06:37;101234.13;;;15.91;54.59
65553;BME280;52465;51.560;14.368;2023-05-19T09:09:06;101234.75;;;15.93;54.58
65553;BME280;52465;51.560;14.368;2023-05-19T09:11:32;101223.06;;;15.87;54.63
65553;BME280;52465;51.560;14.368;2023-05-19T09:13:57;101198.13;;;15.82;54.54
65553;BME280;52465;51.560;14.368;2023-05-19T09:16:23;101229.66;;;16.00;54.50
65553;BME280;52465;51.560;14.368;2023-05-19T09:18:56;101237.41;;;16.01;54.50
65553;BME280;52465;51.560;14.368;2023-05-19T09:21:26;101233.59;;;16.04;54.32
65553;BME280;52465;51.560;14.368;2023-05-19T09:23:55;101232.44;;;16.06;54.32
65553;BME280;52465;51.560;14.368;2023-05-19T09:26:20;101232.13;;;16.01;54.28
65553;BME280;52465;51.560;14.368;2023-05-19T09:28:47;101233.91;;;16.09;54.44
65553;BME280;52465;51.560;14.368;2023-05-19T09:31:13;101234.91;;;16.08;54.30
65553;BME280;52465;51.560;14.368;2023-05-19T09:33:40;101230.63;;;15.99;54.31
65553;BME280;52465;51.560;14.368;2023-05-19T09:36:09;101233.09;;;16.08;54.09
65553;BME280;52465;51.560;14.368;2023-05-19T09:38:36;101211.66;;;15.95;54.03
65553;BME280;52465;51.560;14.368;2023-05-19T09:41:04;101232.44;;;16.06;53.84
65553;BME280;52465;51.560;14.368;2023-05-19T09:43:32;101224.84;;;16.03;53.52
65553;BME280;52465;51.560;14.368;2023-05-19T09:46:05;101231.25;;;16.09;53.50
65553;BME280;52465;51.560;14.368;2023-05-19T09:48:32;101232.91;;;16.10;53.45
65553;BME280;52465;51.560;14.368;2023-05-19T09:50:59;101231.94;;;16.11;53.46
65553;BME280;52465;51.560;14.368;2023-05-19T09:53:25;101224.97;;;16.10;53.28
65553;BME280;52465;51.560;14.368;2023-05-19T09:55:54;101230.44;;;16.08;53.19
65553;BME280;52465;51.560;14.368;2023-05-19T09:58:22;101204.22;;;15.99;53.15
65553;BME280;52465;51.560;14.368;2023-05-19T10:00:49;101216.75;;;16.05;53.36
65553;BME280;52465;51.560;14.368;2023-05-19T10:03:16;101210.50;;;16.06;52.98
65553;BME280;52465;51.560;14.368;2023-05-19T10:05:43;101219.22;;;16.06;53.17
65553;BME280;52465;51.560;14.368;2023-05-19T10:08:10;101223.16;;;16.10;53.00
65553;BME280;52465;51.560;14.368;2023-05-19T10:10:36;101200.94;;;15.97;52.90
65553;BME280;52465;51.560;14.368;2023-05-19T10:13:03;101193.00;;;15.97;53.10
65553;BME280;52465;51.560;14.368;2023-05-19T10:15:29;101207.31;;;16.10;53.10
65553;BME280;52465;51.560;14.368;2023-05-19T10:17:55;101204.34;;;16.13;53.20
65553;BME280;52465;51.560;14.368;2023-05-19T10:20:20;101201.03;;;16.20;52.95
65553;BME280;52465;51.560;14.368;2023-05-19T10:22:46;101200.03;;;16.21;53.00
65553;BME280;52465;51.560;14.368;2023-05-19T10:25:13;101200.69;;;16.23;52.89
65553;BME280;52465;51.560;14.368;2023-05-19T10:27:48;101191.47;;;16.19;53.01
65553;BME280;52465;51.560;14.368;2023-05-19T10:30:18;101204.81;;;16.25;53.05
65553;BME280;52465;51.560;14.368;2023-05-19T10:32:45;101197.53;;;16.27;52.95
65553;BME280;52465;51.560;14.368;2023-05-19T10:41:27;101199.66;;;16.32;52.99
65553;BME280;52465;51.560;14.368;2023-05-19T10:46:39;101171.78;;;16.21;52.98
65553;BME280;52465;51.560;14.368;2023-05-19T10:49:07;101191.72;;;16.32;53.00
65553;BME280;52465;51.560;14.368;2023-05-19T10:51:33;101190.56;;;16.34;53.03
65553;BME280;52465;51.560;14.368;2023-05-19T10:54:07;101159.75;;;16.19;53.02
65553;BME280;52465;51.560;14.368;2023-05-19T10:56:33;101163.84;;;16.21;53.11
65553;BME280;52465;51.560;14.368;2023-05-19T10:59:09;101176.69;;;16.32;53.02
65553;BME280;52465;51.560;14.368;2023-05-19T11:01:43;101176.38;;;16.27;53.08
65553;BME280;52465;51.560;14.368;2023-05-19T11:04:09;101185.75;;;16.38;53.11
65553;BME280;52465;51.560;14.368;2023-05-19T11:06:36;101171.09;;;16.27;53.18
65553;BME280;52465;51.560;14.368;2023-05-19T11:09:13;101192.03;;;16.37;53.13
65553;BME280;52465;51.560;14.368;2023-05-19T11:11:47;101185.94;;;16.36;53.09
65553;BME280;52465;51.560;14.368;2023-05-19T11:14:16;101181.84;;;16.34;53.14
65553;BME280;52465;51.560;14.368;2023-05-19T11:16:45;101173.22;;;16.32;53.22
65553;BME280;52465;51.560;14.368;2023-05-19T11:19:30;101189.06;;;16.40;53.29
65553;BME280;52465;51.560;14.368;2023-05-19T11:24:42;101179.13;;;16.42;53.21
65553;BME280;52465;51.560;14.368;2023-05-19T11:27:26;101173.84;;;16.42;53.13
65553;BME280;52465;51.560;14.368;2023-05-19T11:29:53;101168.56;;;16.42;53.15
65553;BME280;52465;51.560;14.368;2023-05-19T11:32:24;101187.56;;;16.46;53.15
65553;BME280;52465;51.560;14.368;2023-05-19T11:34:51;101181.59;;;16.44;53.25
65553;BME280;52465;51.560;14.368;2023-05-19T11:37:20;101181.44;;;16.45;53.31
65553;BME280;52465;51.560;14.368;2023-05-19T11:39:45;101181.44;;;16.45;53.08
65553;BME280;52465;51.560;14.368;2023-05-19T11:42:11;101178.81;;;16.45;53.34
65553;BME280;52465;51.560;14.368;2023-05-19T11:44:37;101185.91;;;16.45;53.37
65553;BME280;52465;51.560;14.368;2023-05-19T11:47:04;101165.78;;;16.35;53.31
65553;BME280;52465;51.560;14.368;2023-05-19T11:49:30;101173.03;;;16.42;53.44
65553;BME280;52465;51.560;14.368;2023-05-19T11:51:56;101174.38;;;16.37;53.28
65553;BME280;52465;51.560;14.368;2023-05-19T11:54:31;101184.25;;;16.44;53.26
65553;BME280;52465;51.560;14.368;2023-05-19T11:57:00;101198.94;;;16.46;53.42
65553;BME280;52465;51.560;14.368;2023-05-19T11:59:33;101189.53;;;16.44;53.33
65553;BME280;52465;51.560;14.368;2023-05-19T12:02:02;101178.50;;;16.40;53.41
65553;BME280;52465;51.560;14.368;2023-05-19T12:04:29;101185.75;;;16.46;53.26
65553;BME280;52465;51.560;14.368;2023-05-19T12:06:55;101184.09;;;16.45;53.19
65553;BME280;52465;51.560;14.368;2023-05-19T12:09:24;101170.38;;;16.42;53.41
65553;BME280;52465;51.560;14.368;2023-05-19T12:11:55;101164.78;;;16.36;53.41
65553;BME280;52465;51.560;14.368;2023-05-19T12:14:21;101159.19;;;16.39;53.37
65553;BME280;52465;51.560;14.368;2023-05-19T12:16:47;101170.06;;;16.45;53.28
65553;BME280;52465;51.560;14.368;2023-05-19T12:19:12;101171.03;;;16.44;53.39
65553;BME280;52465;51.560;14.368;2023-05-19T12:21:38;101171.69;;;16.46;53.56
65553;BME280;52465;51.560;14.368;2023-05-19T12:24:03;101176.31;;;16.44;53.40
65553;BME280;52465;51.560;14.368;2023-05-19T12:26:30;101173.22;;;16.40;53.20
65553;BME280;52465;51.560;14.368;2023-05-19T12:28:57;101169.88;;;16.46;53.42
65553;BME280;52465;51.560;14.368;2023-05-19T12:31:22;101176.31;;;16.44;53.31
65553;BME280;52465;51.560;14.368;2023-05-19T12:33:48;101178.66;;;16.38;53.40
65553;BME280;52465;51.560;14.368;2023-05-19T12:36:17;101181.28;;;16.47;53.40
65553;BME280;52465;51.560;14.368;2023-05-19T12:38:46;101177.63;;;16.48;53.32
65553;BME280;52465;51.560;14.368;2023-05-19T12:41:12;101174.69;;;16.43;53.43
65553;BME280;52465;51.560;14.368;2023-05-19T12:43:37;101175.50;;;16.43;53.44
65553;BME280;52465;51.560;14.368;2023-05-19T12:46:12;101174.16;;;16.47;53.45
65553;BME280;52465;51.560;14.368;2023-05-19T12:48:44;101188.38;;;16.46;53.18
65553;BME280;52465;51.560;14.368;2023-05-19T12:51:18;101165.09;;;16.42;53.32
65553;BME280;52465;51.560;14.368;2023-05-19T12:53:44;101174.81;;;16.49;53.32
65553;BME280;52465;51.560;14.368;2023-05-19T12:56:11;101171.53;;;16.47;53.29
65553;BME280;52465;51.560;14.368;2023-05-19T12:58:38;101172.34;;;16.48;53.56